Joven Daniel Segundo — EA8808 — position and weather

sailwx.info

Track history (hours):
 
Tides and Currents Weather Stations Pressure Air Temp Water Temp Dewpoint Dewpoint Depression Visibility Wind Speed Wind Dir Waves Ship Positions

Joven Daniel Segundo

Last reported at 2018-Jun-18 16:17 UTC. Time now 2018-Jun-18 21:18 UTC.
Position N 39°34' E 002°38'.

Length 21 m.

Type: Fishing. MMSI: 224189820.

Date/timePositionNaut miles runAvg speedWind from/ knotsBaromVisibWave heightAir tempDewpointWater temp
2018-Jun-18 16:17N 39°34' E 002°38'0 0.0
2018-Jun-18 15:54N 39°34' E 002°38'0 0.0
2018-Jun-18 15:30N 39°34' E 002°38'0 0.0
2018-Jun-18 15:00N 39°34' E 002°38'4 7.6
2018-Jun-18 14:30N 39°30' E 002°37'4 8.6
2018-Jun-18 14:00N 39°27' E 002°34'5 8.1
2018-Jun-18 13:25N 39°23' E 002°31'10 1.2
2018-Jun-18 05:05N 39°13' E 002°35'1 9.7
2018-Jun-18 04:59N 39°14' E 002°35'5 9.8
2018-Jun-18 04:30N 39°19' E 002°36'5 9.8
2018-Jun-18 04:00N 39°24' E 002°36'5 9.9
2018-Jun-18 03:31N 39°29' E 002°37'5 9.7
2018-Jun-18 03:00N 39°33' E 002°38'1 1.3
2018-Jun-18 02:30N 39°34' E 002°38'  
2018-Jun-15 15:00N 39°34' E 002°38'3 5.7
2018-Jun-15 14:30N 39°31' E 002°38'22 5.5
2018-Jun-15 10:34N 39°10' E 002°33'0 2.9
2018-Jun-15 10:28N 39°10' E 002°34'4 0.8
2018-Jun-15 05:00N 39°14' E 002°35'5 9.7
2018-Jun-15 04:30N 39°19' E 002°36'5 9.6
2018-Jun-15 04:00N 39°24' E 002°37'5 9.5
2018-Jun-15 03:30N 39°28' E 002°38'5 9.7
2018-Jun-15 03:00N 39°33' E 002°38'1 2.0
2018-Jun-15 02:30N 39°34' E 002°38'0 0.0
2018-Jun-14 14:57N 39°34' E 002°38'3 6.5
2018-Jun-14 14:30N 39°31' E 002°38'4 9.0
2018-Jun-14 14:00N 39°27' E 002°36'5 8.9
2018-Jun-14 13:30N 39°23' E 002°34'5 9.4
2018-Jun-14 13:00N 39°18' E 002°33'5 9.7
2018-Jun-14 12:30N 39°13' E 002°31'14 1.6
2018-Jun-14 03:38N 39°27' E 002°37'1 9.7
2018-Jun-14 03:30N 39°28' E 002°37'5 9.8
2018-Jun-14 03:00N 39°33' E 002°38'1 1.7
2018-Jun-14 02:30N 39°34' E 002°38'0 0.0
2018-Jun-13 11:41N 39°34' E 002°38'0 0.0
2018-Jun-13 11:31N 39°34' E 002°38'0 0.0
2018-Jun-13 11:00N 39°34' E 002°38'0 0.0
2018-Jun-11 07:42N 39°34' E 002°38'0 0.0
2018-Jun-11 07:23N 39°34' E 002°38'  
Track history (hours):
 
Tides and Currents Weather Stations Pressure Air Temp Water Temp Dewpoint Dewpoint Depression Visibility Wind Speed Wind Dir Waves Ship Positions

Joven Daniel Segundo

Last reported at 2018-Jun-18 16:17 UTC. Time now 2018-Jun-18 21:18 UTC.
Position N 39°34' E 002°38'.

Length 21 m.

Type: Fishing. MMSI: 224189820.

Date/timePositionNaut miles runAvg speedWind from/ knotsBaromVisibWave heightAir tempDewpointWater temp
2018-Jun-18 16:17N 39°34' E 002°38'0 0.0
2018-Jun-18 15:54N 39°34' E 002°38'0 0.0
2018-Jun-18 15:30N 39°34' E 002°38'0 0.0
2018-Jun-18 15:00N 39°34' E 002°38'4 7.6
2018-Jun-18 14:30N 39°30' E 002°37'4 8.6
2018-Jun-18 14:00N 39°27' E 002°34'5 8.1
2018-Jun-18 13:25N 39°23' E 002°31'10 1.2
2018-Jun-18 05:05N 39°13' E 002°35'1 9.7
2018-Jun-18 04:59N 39°14' E 002°35'5 9.8
2018-Jun-18 04:30N 39°19' E 002°36'5 9.8
2018-Jun-18 04:00N 39°24' E 002°36'5 9.9
2018-Jun-18 03:31N 39°29' E 002°37'5 9.7
2018-Jun-18 03:00N 39°33' E 002°38'1 1.3
2018-Jun-18 02:30N 39°34' E 002°38'  
2018-Jun-15 15:00N 39°34' E 002°38'3 5.7
2018-Jun-15 14:30N 39°31' E 002°38'22 5.5
2018-Jun-15 10:34N 39°10' E 002°33'0 2.9
2018-Jun-15 10:28N 39°10' E 002°34'4 0.8
2018-Jun-15 05:00N 39°14' E 002°35'5 9.7
2018-Jun-15 04:30N 39°19' E 002°36'5 9.6
2018-Jun-15 04:00N 39°24' E 002°37'5 9.5
2018-Jun-15 03:30N 39°28' E 002°38'5 9.7
2018-Jun-15 03:00N 39°33' E 002°38'1 2.0
2018-Jun-15 02:30N 39°34' E 002°38'0 0.0
2018-Jun-14 14:57N 39°34' E 002°38'3 6.5
2018-Jun-14 14:30N 39°31' E 002°38'4 9.0
2018-Jun-14 14:00N 39°27' E 002°36'5 8.9
2018-Jun-14 13:30N 39°23' E 002°34'5 9.4
2018-Jun-14 13:00N 39°18' E 002°33'5 9.7
2018-Jun-14 12:30N 39°13' E 002°31'14 1.6
2018-Jun-14 03:38N 39°27' E 002°37'1 9.7
2018-Jun-14 03:30N 39°28' E 002°37'5 9.8
2018-Jun-14 03:00N 39°33' E 002°38'1 1.7
2018-Jun-14 02:30N 39°34' E 002°38'0 0.0
2018-Jun-13 11:41N 39°34' E 002°38'0 0.0
2018-Jun-13 11:31N 39°34' E 002°38'0 0.0
2018-Jun-13 11:00N 39°34' E 002°38'0 0.0
2018-Jun-11 07:42N 39°34' E 002°38'0 0.0
2018-Jun-11 07:23N 39°34' E 002°38'  

Dump ship's entire track history